Time;durP1;ratioP1;P1;durP2;ratioP2;P2;SDS_P1;SDS_P2;PMS_P1;PMS_P2;Temp;Humidity;BMP_temperature;BMP_pressure;BME280_temperature;BME280_humidity;BME280_pressure;Samples;Min_cycle;Max_cycle;Signal;HPM_P1;HPM_P2
2022/05/21 00:01:44;;;;;;;;;;;;;;;18.21;68.12;98179.06;5148193;27;19927;-62
2022/05/21 00:04:12;;;;;;;;;;;;;;;18.18;67.91;98177.03;5142584;27;21607;-63
2022/05/21 00:06:41;;;;;;;;;;;;;;;18.30;67.85;98178.91;5149085;27;20351;-64
2022/05/21 00:09:08;;;;;;;;;;;;;;;18.20;67.79;98182.97;5149441;27;19919;-63
2022/05/21 00:11:37;;;;;;;;;;;;;;;18.22;67.51;98183.44;5148981;27;20246;-64
2022/05/21 00:14:04;;;;;;;;;;;;;;;18.19;67.02;98188.84;5149245;27;20277;-60
2022/05/21 00:16:33;;;;;;;;;;;;;;;18.13;66.84;98180.06;5142306;27;20280;-63
2022/05/21 00:19:01;;;;;;;;;;;;;;;18.11;67.57;98185.13;5149396;27;19994;-63
2022/05/21 00:21:29;;;;;;;;;;;;;;;18.13;66.70;98182.81;5149230;27;19926;-63
2022/05/21 00:23:57;;;;;;;;;;;;;;;18.08;66.71;98188.56;5139331;27;19919;-63
2022/05/21 00:26:25;;;;;;;;;;;;;;;18.08;65.93;98196.81;5139063;27;19930;-63
2022/05/21 00:28:56;;;;;;;;;;;;;;;17.91;66.05;98205.41;5145977;27;20282;-63
2022/05/21 00:31:24;;;;;;;;;;;;;;;18.09;65.19;98209.41;5143030;27;20074;-62
2022/05/21 00:33:53;;;;;;;;;;;;;;;18.01;65.36;98211.19;5146294;27;20354;-62
2022/05/21 00:36:21;;;;;;;;;;;;;;;18.05;64.97;98216.75;5145578;27;19958;-64
2022/05/21 00:38:49;;;;;;;;;;;;;;;17.92;63.99;98218.78;5150227;27;20017;-63
2022/05/21 00:41:23;;;;;;;;;;;;;;;17.91;65.19;98216.41;5148838;27;20050;-59
2022/05/21 00:43:51;;;;;;;;;;;;;;;17.94;64.59;98223.91;5150054;27;19987;-63
2022/05/21 00:46:20;;;;;;;;;;;;;;;17.91;65.19;98230.16;5149545;27;19934;-62
2022/05/21 00:48:52;;;;;;;;;;;;;;;17.84;64.62;98227.97;5137411;27;20181;-64
2022/05/21 00:51:23;;;;;;;;;;;;;;;17.83;65.08;98237.38;5147669;27;19967;-63
2022/05/21 00:53:51;;;;;;;;;;;;;;;17.74;65.46;98245.78;5149793;27;19945;-61
2022/05/21 00:56:19;;;;;;;;;;;;;;;17.68;65.51;98247.13;5054912;27;2410080;-62
2022/05/21 01:01:38;;;;;;;;;;;;;;;17.70;65.25;98250.34;5149943;27;20037;-61
2022/05/21 01:04:06;;;;;;;;;;;;;;;17.71;64.94;98251.94;5149760;27;20293;-62
2022/05/21 01:06:35;;;;;;;;;;;;;;;17.53;65.50;98256.16;5149620;27;20673;-62
2022/05/21 01:09:04;;;;;;;;;;;;;;;17.46;65.21;98255.94;5145425;27;19987;-63
2022/05/21 01:11:32;;;;;;;;;;;;;;;17.25;64.33;98272.56;5149360;27;19946;-63
2022/05/21 01:13:59;;;;;;;;;;;;;;;17.08;64.83;98273.63;5149738;27;19946;-64
2022/05/21 01:16:28;;;;;;;;;;;;;;;16.93;65.46;98277.88;5145355;27;19975;-63
2022/05/21 01:18:56;;;;;;;;;;;;;;;16.82;65.50;98284.97;5143112;27;19927;-63
2022/05/21 01:21:24;;;;;;;;;;;;;;;16.89;65.30;98284.41;5119692;27;19987;-64
2022/05/21 01:23:54;;;;;;;;;;;;;;;16.88;65.07;98283.59;5141895;27;20248;-60
2022/05/21 01:26:23;;;;;;;;;;;;;;;16.96;64.01;98287.38;5138620;27;20026;-59
2022/05/21 01:28:51;;;;;;;;;;;;;;;16.83;64.33;98294.00;5145764;27;19923;-64
2022/05/21 01:31:19;;;;;;;;;;;;;;;16.67;64.26;98302.91;5139956;27;19984;-63
2022/05/21 01:33:48;;;;;;;;;;;;;;;16.59;64.17;98308.47;5146273;27;19919;-63
2022/05/21 01:36:17;;;;;;;;;;;;;;;16.45;63.55;98309.59;5148631;27;20390;-64
2022/05/21 01:39:10;;;;;;;;;;;;;;;16.44;63.44;98309.94;5149630;27;20392;-63
2022/05/21 01:41:41;;;;;;;;;;;;;;;16.47;63.38;98310.06;5143443;27;19972;-64
2022/05/21 01:46:55;;;;;;;;;;;;;;;16.37;62.57;98318.72;5149854;27;20419;-65
2022/05/21 01:49:23;;;;;;;;;;;;;;;16.26;61.83;98319.50;5131007;27;19930;-61
2022/05/21 01:51:50;;;;;;;;;;;;;;;16.17;62.91;98319.56;5150225;27;19941;-60
2022/05/21 01:54:19;;;;;;;;;;;;;;;16.15;63.12;98328.16;5145247;27;19956;-63
2022/05/21 01:56:48;;;;;;;;;;;;;;;16.03;63.05;98324.53;5144213;27;20344;-63
2022/05/21 01:59:16;;;;;;;;;;;;;;;16.01;62.96;98324.88;5149171;27;20009;-64
2022/05/21 02:01:44;;;;;;;;;;;;;;;15.93;63.12;98329.31;5144633;27;19930;-64
2022/05/21 02:04:12;;;;;;;;;;;;;;;15.83;63.11;98339.88;5146608;27;19919;-64
2022/05/21 02:06:44;;;;;;;;;;;;;;;15.80;63.28;98332.31;5129640;27;19919;-63
2022/05/21 02:09:18;;;;;;;;;;;;;;;15.81;63.56;98342.13;5134472;27;20120;-63
2022/05/21 02:11:48;;;;;;;;;;;;;;;15.69;63.52;98340.16;5144189;27;19994;-65
2022/05/21 02:14:16;;;;;;;;;;;;;;;15.58;63.58;98350.66;5148571;27;20322;-62
2022/05/21 02:16:45;;;;;;;;;;;;;;;15.39;63.33;98351.13;5141665;27;19919;-63
2022/05/21 02:19:12;;;;;;;;;;;;;;;15.41;64.16;98354.34;5141172;27;19931;-64
2022/05/21 02:21:41;;;;;;;;;;;;;;;15.40;64.43;98355.47;5147538;27;19919;-64
2022/05/21 02:24:10;;;;;;;;;;;;;;;15.46;63.76;98353.34;5134442;27;20407;-63
2022/05/21 02:26:38;;;;;;;;;;;;;;;15.19;64.30;98366.38;5137549;27;19923;-65
2022/05/21 02:29:07;;;;;;;;;;;;;;;15.13;64.84;98359.50;5130348;27;19975;-66
2022/05/21 02:31:35;;;;;;;;;;;;;;;15.07;65.02;98363.53;5143086;27;20284;-65
2022/05/21 02:34:03;;;;;;;;;;;;;;;15.09;65.28;98366.75;5147701;27;19919;-66
2022/05/21 02:39:28;;;;;;;;;;;;;;;15.27;63.79;98367.44;5144280;27;19919;-66
2022/05/21 02:45:08;;;;;;;;;;;;;;;15.19;63.87;98380.06;5147911;27;20372;-66
2022/05/21 02:47:36;;;;;;;;;;;;;;;15.25;64.34;98388.09;5137063;27;19953;-67
2022/05/21 02:50:04;;;;;;;;;;;;;;;15.28;63.55;98384.69;5137185;27;20018;-65
2022/05/21 02:52:33;;;;;;;;;;;;;;;15.19;64.05;98382.81;5147612;27;19975;-65
2022/05/21 02:55:04;;;;;;;;;;;;;;;15.32;62.89;98394.63;5147946;27;20014;-67
2022/05/21 02:57:32;;;;;;;;;;;;;;;15.12;63.34;98395.38;5142278;27;19965;-66
2022/05/21 03:00:00;;;;;;;;;;;;;;;15.20;63.47;98397.28;5143582;27;19969;-66
2022/05/21 03:02:54;;;;;;;;;;;;;;;15.15;62.76;98403.75;5158058;27;19983;-66
2022/05/21 03:05:28;;;;;;;;;;;;;;;15.22;62.70;98407.91;5161931;27;19928;-63
2022/05/21 03:11:06;;;;;;;;;;;;;;;14.80;63.36;98408.53;5167281;27;19945;-67
2022/05/21 03:13:39;;;;;;;;;;;;;;;14.83;63.51;98405.16;5149348;27;20319;-67
2022/05/21 03:16:10;;;;;;;;;;;;;;;14.83;63.12;98407.91;5125570;27;20384;-65
2022/05/21 03:18:40;;;;;;;;;;;;;;;14.64;62.78;98404.72;5163781;27;19925;-64
2022/05/21 03:21:13;;;;;;;;;;;;;;;14.51;63.78;98409.28;5132737;27;19948;-66
2022/05/21 03:23:46;;;;;;;;;;;;;;;14.58;63.44;98400.56;5142395;27;19979;-64
2022/05/21 03:26:14;;;;;;;;;;;;;;;14.33;63.99;98410.41;5150337;27;20001;-67
2022/05/21 03:28:42;;;;;;;;;;;;;;;14.51;64.33;98412.00;5139317;27;19919;-64
2022/05/21 03:31:11;;;;;;;;;;;;;;;14.39;63.91;98414.56;5150185;27;20390;-67
2022/05/21 03:33:40;;;;;;;;;;;;;;;14.37;64.23;98411.34;5159490;27;20414;-66
2022/05/21 03:36:10;;;;;;;;;;;;;;;14.35;64.80;98419.06;5150745;27;19923;-67
2022/05/21 03:38:38;;;;;;;;;;;;;;;14.22;64.97;98420.88;5159576;27;19925;-66
2022/05/21 03:41:06;;;;;;;;;;;;;;;14.19;65.16;98421.50;5156064;27;19922;-65
2022/05/21 03:43:38;;;;;;;;;;;;;;;14.22;64.70;98426.34;5159979;27;19986;-64
2022/05/21 03:46:06;;;;;;;;;;;;;;;14.16;65.22;98424.88;5146389;27;19955;-65
2022/05/21 03:48:36;;;;;;;;;;;;;;;14.12;65.02;98430.19;5140841;27;20010;-67
2022/05/21 03:51:06;;;;;;;;;;;;;;;14.18;64.99;98432.75;5150052;27;20370;-63
2022/05/21 03:53:41;;;;;;;;;;;;;;;13.97;65.44;98440.78;5154745;27;20268;-65
2022/05/21 03:56:11;;;;;;;;;;;;;;;13.93;65.96;98437.09;5162913;27;20448;-68
2022/05/21 03:58:38;;;;;;;;;;;;;;;13.91;65.98;98445.59;5154664;27;19942;-66
2022/05/21 04:01:06;;;;;;;;;;;;;;;13.77;65.97;98447.66;5154010;27;20333;-67
2022/05/21 04:03:37;;;;;;;;;;;;;;;13.91;66.08;98448.34;5147765;27;19931;-65
2022/05/21 04:06:07;;;;;;;;;;;;;;;13.88;65.93;98448.97;5143542;27;20132;-61
2022/05/21 04:08:38;;;;;;;;;;;;;;;13.82;65.70;98456.50;5162661;27;19962;-65
2022/05/21 04:11:06;;;;;;;;;;;;;;;13.86;66.35;98462.16;5151873;27;19923;-65
2022/05/21 04:13:36;;;;;;;;;;;;;;;13.82;66.08;98466.63;5152132;27;19925;-65
2022/05/21 04:16:04;;;;;;;;;;;;;;;13.88;66.21;98468.09;5135532;27;19923;-62
2022/05/21 04:18:33;;;;;;;;;;;;;;;13.96;65.74;98467.31;5159755;27;20027;-65
2022/05/21 04:21:01;;;;;;;;;;;;;;;14.00;65.80;98468.25;5139610;27;20018;-66
2022/05/21 04:23:30;;;;;;;;;;;;;;;13.77;66.20;98480.44;5153891;27;19955;-65
2022/05/21 04:25:58;;;;;;;;;;;;;;;13.94;66.23;98480.47;5152841;27;19975;-65
2022/05/21 04:28:26;;;;;;;;;;;;;;;13.82;66.33;98478.34;5148727;27;19926;-65
2022/05/21 04:30:54;;;;;;;;;;;;;;;13.85;65.99;98471.47;5148256;27;19919;-65
2022/05/21 04:33:22;;;;;;;;;;;;;;;13.75;66.55;98477.22;5151204;27;19919;-66
2022/05/21 04:38:43;;;;;;;;;;;;;;;14.05;66.13;98481.75;5154242;27;19919;-64
2022/05/21 04:41:11;;;;;;;;;;;;;;;14.18;65.65;98479.22;5158200;27;19919;-65
2022/05/21 04:43:39;;;;;;;;;;;;;;;14.26;65.45;98481.94;5158779;27;19988;-65
2022/05/21 04:46:11;;;;;;;;;;;;;;;14.01;65.70;98490.91;5155121;27;19929;-66
2022/05/21 04:48:41;;;;;;;;;;;;;;;14.12;65.24;98493.03;5145277;27;20019;-66
2022/05/21 04:51:21;;;;;;;;;;;;;;;14.13;65.37;98499.28;5156093;27;20327;-63
2022/05/21 04:53:51;;;;;;;;;;;;;;;14.21;64.86;98501.22;5136548;27;19919;-63
2022/05/21 04:56:19;;;;;;;;;;;;;;;14.19;64.35;98499.94;5141006;27;19927;-65
2022/05/21 04:59:04;;;;;;;;;;;;;;;14.19;63.54;98495.28;5148447;27;19962;-66
2022/05/21 05:01:32;;;;;;;;;;;;;;;14.07;63.79;98512.31;5141411;27;19954;-66
2022/05/21 05:04:00;;;;;;;;;;;;;;;14.27;63.43;98501.88;5149894;27;20010;-66
2022/05/21 05:06:28;;;;;;;;;;;;;;;14.09;63.54;98495.59;5148684;27;20282;-66
2022/05/21 05:08:57;;;;;;;;;;;;;;;14.05;63.11;98503.59;5143213;27;19919;-66
2022/05/21 05:11:25;;;;;;;;;;;;;;;13.89;62.83;98497.00;5149973;27;19964;-65
2022/05/21 05:13:53;;;;;;;;;;;;;;;13.97;62.78;98490.75;5146128;27;20019;-66
2022/05/21 05:16:20;;;;;;;;;;;;;;;13.96;62.68;98489.16;5145472;27;19971;-65
2022/05/21 05:18:48;;;;;;;;;;;;;;;14.04;62.89;98488.34;5138253;27;19971;-67
2022/05/21 05:21:16;;;;;;;;;;;;;;;14.20;62.22;98493.34;5127946;27;19926;-67
2022/05/21 05:23:44;;;;;;;;;;;;;;;14.44;61.15;98487.41;5144909;27;19922;-66
2022/05/21 05:26:13;;;;;;;;;;;;;;;14.30;60.47;98493.03;5142338;27;19971;-66
2022/05/21 05:28:42;;;;;;;;;;;;;;;14.25;60.79;98502.19;5134747;27;20308;-67
2022/05/21 05:31:10;;;;;;;;;;;;;;;14.40;59.90;98512.66;5143614;27;19955;-66
2022/05/21 05:33:38;;;;;;;;;;;;;;;14.23;60.91;98509.13;5145508;27;19926;-65
2022/05/21 05:36:06;;;;;;;;;;;;;;;14.46;60.29;98517.97;5149418;27;19983;-64
2022/05/21 05:38:38;;;;;;;;;;;;;;;14.55;60.23;98505.94;5149280;27;19927;-67
2022/05/21 05:41:10;;;;;;;;;;;;;;;14.53;60.85;98510.09;5132061;27;19923;-63
2022/05/21 05:43:44;;;;;;;;;;;;;;;14.52;60.38;98514.75;5135896;27;20376;-63
2022/05/21 05:46:12;;;;;;;;;;;;;;;14.44;60.46;98503.81;5149395;27;20660;-65
2022/05/21 05:48:40;;;;;;;;;;;;;;;14.49;60.67;98517.31;5142567;27;20006;-65
2022/05/21 05:51:11;;;;;;;;;;;;;;;14.52;59.63;98512.03;5147968;27;19980;-66
2022/05/21 05:53:41;;;;;;;;;;;;;;;14.57;59.35;98520.06;5144355;27;20270;-64
2022/05/21 05:56:12;;;;;;;;;;;;;;;14.76;59.19;98516.22;5148984;27;19927;-66
2022/05/21 06:01:31;;;;;;;;;;;;;;;14.52;59.90;98520.22;5151031;27;20025;-65
2022/05/21 06:03:58;;;;;;;;;;;;;;;14.63;60.08;98513.31;5154251;27;19923;-65
2022/05/21 06:06:28;;;;;;;;;;;;;;;14.99;58.87;98514.06;5137004;27;19919;-65
2022/05/21 06:08:56;;;;;;;;;;;;;;;14.89;59.22;98520.69;5152994;27;19919;-65
2022/05/21 06:11:25;;;;;;;;;;;;;;;14.87;58.21;98522.94;5147483;27;19936;-65
2022/05/21 06:13:55;;;;;;;;;;;;;;;14.89;58.01;98521.47;5140130;27;19954;-65
2022/05/21 06:16:23;;;;;;;;;;;;;;;14.87;58.34;98520.22;5136010;27;19934;-65
2022/05/21 06:18:51;;;;;;;;;;;;;;;15.36;57.48;98523.47;5141596;27;20055;-64
2022/05/21 06:21:19;;;;;;;;;;;;;;;15.11;57.67;98517.72;5154548;27;19936;-64
2022/05/21 06:23:47;;;;;;;;;;;;;;;15.23;57.66;98519.78;5154646;27;19919;-64
2022/05/21 06:26:16;;;;;;;;;;;;;;;14.98;57.59;98515.22;5151952;27;19919;-65
2022/05/21 06:28:44;;;;;;;;;;;;;;;15.02;57.98;98522.44;5113889;27;19923;-64
2022/05/21 06:31:14;;;;;;;;;;;;;;;15.03;57.23;98520.50;5146372;27;20346;-63
2022/05/21 06:33:41;;;;;;;;;;;;;;;15.09;57.07;98525.47;5136026;27;20277;-64
2022/05/21 06:36:11;;;;;;;;;;;;;;;15.23;57.46;98516.25;5128217;27;20021;-65
2022/05/21 06:38:39;;;;;;;;;;;;;;;15.26;55.94;98529.28;5130572;27;19923;-66
2022/05/21 06:41:12;;;;;;;;;;;;;;;15.14;55.82;98529.97;5113285;27;19954;-65
2022/05/21 06:43:42;;;;;;;;;;;;;;;14.96;55.88;98540.13;5132565;27;20044;-65
2022/05/21 06:46:10;;;;;;;;;;;;;;;14.97;55.65;98528.09;5146949;27;19923;-65
2022/05/21 06:48:39;;;;;;;;;;;;;;;14.77;56.16;98536.97;5137073;27;20022;-66
2022/05/21 06:51:10;;;;;;;;;;;;;;;14.85;56.58;98531.47;5141560;27;19919;-65
2022/05/21 06:53:38;;;;;;;;;;;;;;;15.03;56.24;98536.94;5139850;27;19941;-65
2022/05/21 06:56:09;;;;;;;;;;;;;;;15.03;56.38;98540.47;5137226;27;20017;-65
2022/05/21 06:58:38;;;;;;;;;;;;;;;15.07;56.19;98535.13;5141405;27;20013;-65
2022/05/21 07:01:06;;;;;;;;;;;;;;;15.19;55.85;98547.03;5136301;27;20033;-64
2022/05/21 07:03:36;;;;;;;;;;;;;;;15.24;55.50;98537.03;5138603;27;19918;-65
2022/05/21 07:08:51;;;;;;;;;;;;;;;15.26;55.74;98534.75;5141860;27;19918;-64
2022/05/21 07:11:19;;;;;;;;;;;;;;;15.30;55.43;98535.72;5137857;27;19931;-65
2022/05/21 07:13:47;;;;;;;;;;;;;;;15.45;55.29;98537.94;5123125;27;20572;-65
2022/05/21 07:16:18;;;;;;;;;;;;;;;15.66;54.87;98538.03;5130032;27;20350;-64
2022/05/21 07:18:46;;;;;;;;;;;;;;;15.65;54.83;98553.66;5121277;27;19980;-64
2022/05/21 07:21:17;;;;;;;;;;;;;;;15.63;54.41;98544.97;5134896;27;19919;-66
2022/05/21 07:23:45;;;;;;;;;;;;;;;15.63;55.12;98539.50;5138939;27;20078;-65
2022/05/21 07:26:14;;;;;;;;;;;;;;;15.68;53.92;98544.78;5139831;27;19970;-64
2022/05/21 07:28:44;;;;;;;;;;;;;;;15.77;54.47;98539.28;5138881;27;19972;-65
2022/05/21 07:31:13;;;;;;;;;;;;;;;16.15;52.60;98532.94;5135714;27;20042;-64
2022/05/21 07:33:41;;;;;;;;;;;;;;;16.07;53.09;98542.78;5141895;27;20010;-64
2022/05/21 07:36:12;;;;;;;;;;;;;;;15.86;53.67;98541.94;5135706;27;20011;-64
2022/05/21 07:38:41;;;;;;;;;;;;;;;15.65;54.55;98536.41;5137565;27;20427;-63
2022/05/21 07:41:11;;;;;;;;;;;;;;;15.95;53.89;98539.97;5116228;27;19999;-64
2022/05/21 07:43:38;;;;;;;;;;;;;;;15.93;53.16;98545.00;5136638;27;20351;-65
2022/05/21 07:46:09;;;;;;;;;;;;;;;16.07;51.84;98542.78;5138046;27;19944;-64
2022/05/21 07:48:37;;;;;;;;;;;;;;;15.88;51.90;98539.69;5131071;27;19920;-64
2022/05/21 07:51:09;;;;;;;;;;;;;;;15.91;53.42;98544.50;5133745;27;19919;-62
2022/05/21 07:53:39;;;;;;;;;;;;;;;15.95;52.65;98542.72;5135568;27;20347;-64
2022/05/21 07:56:11;;;;;;;;;;;;;;;15.69;53.78;98543.66;5132401;27;19927;-64
2022/05/21 07:58:40;;;;;;;;;;;;;;;15.62;52.99;98548.00;5116057;27;19939;-65
2022/05/21 08:01:12;;;;;;;;;;;;;;;15.78;52.70;98545.56;5132807;27;19938;-65
2022/05/21 08:03:45;;;;;;;;;;;;;;;16.14;52.47;98553.22;5135819;27;19995;-65
2022/05/21 08:06:13;;;;;;;;;;;;;;;16.13;52.78;98551.63;5138345;27;20053;-63
2022/05/21 08:08:41;;;;;;;;;;;;;;;16.01;52.18;98549.59;5137194;27;19934;-63
2022/05/21 08:11:14;;;;;;;;;;;;;;;16.02;52.15;98545.72;5133843;27;20349;-62
2022/05/21 08:13:43;;;;;;;;;;;;;;;16.42;51.39;98546.13;5138498;27;20410;-63
2022/05/21 08:16:11;;;;;;;;;;;;;;;16.65;51.70;98543.84;5133169;27;19980;-63
2022/05/21 08:18:39;;;;;;;;;;;;;;;16.75;52.40;98540.72;5135482;27;19983;-63
2022/05/21 08:21:07;;;;;;;;;;;;;;;16.82;52.45;98550.34;5137529;27;20033;-61
2022/05/21 08:29:19;;;;;;;;;;;;;;;16.65;51.13;98545.78;5138731;27;20122;-63
2022/05/21 08:31:47;;;;;;;;;;;;;;;16.95;50.57;98550.06;5140035;27;19972;-64
2022/05/21 08:34:15;;;;;;;;;;;;;;;16.87;48.70;98556.41;5139899;27;20375;-64
2022/05/21 08:37:33;;;;;;;;;;;;;;;16.82;49.25;98556.63;5142473;27;20225;-63
2022/05/21 08:40:02;;;;;;;;;;;;;;;17.11;48.90;98555.72;5139857;27;19927;-63
2022/05/21 08:42:33;;;;;;;;;;;;;;;17.33;48.13;98550.97;5141454;27;20160;-64
2022/05/21 08:45:06;;;;;;;;;;;;;;;17.49;47.20;98565.66;5140357;27;19919;-64
2022/05/21 08:47:35;;;;;;;;;;;;;;;17.22;45.64;98559.63;5145823;27;19984;-63
2022/05/21 08:50:09;;;;;;;;;;;;;;;17.40;47.02;98563.00;5144088;27;19931;-63
2022/05/21 08:52:41;;;;;;;;;;;;;;;17.42;47.90;98562.66;5141486;27;19926;-64
2022/05/21 08:55:10;;;;;;;;;;;;;;;17.21;47.75;98558.03;5139454;27;19965;-64
2022/05/21 08:57:41;;;;;;;;;;;;;;;17.05;48.71;98548.84;5141981;27;19919;-64
2022/05/21 09:00:10;;;;;;;;;;;;;;;17.25;47.72;98547.94;5138158;27;19919;-65
2022/05/21 09:02:39;;;;;;;;;;;;;;;17.41;46.28;98528.06;5118506;27;19923;-65
2022/05/21 09:05:31;;;;;;;;;;;;;;;17.40;46.98;98534.72;5142302;27;20018;-64
2022/05/21 09:08:03;;;;;;;;;;;;;;;17.58;47.22;98538.88;5138905;27;19926;-64
2022/05/21 09:10:35;;;;;;;;;;;;;;;17.49;47.06;98538.19;5141427;27;19923;-64
2022/05/21 09:13:13;;;;;;;;;;;;;;;17.37;47.20;98549.16;5140059;27;19927;-65
2022/05/21 09:18:29;;;;;;;;;;;;;;;17.27;47.19;98523.72;5139694;27;19919;-64
2022/05/21 09:20:59;;;;;;;;;;;;;;;17.42;47.42;98525.00;5137072;27;19919;-64
2022/05/21 09:23:28;;;;;;;;;;;;;;;17.80;47.07;98527.47;5143304;27;19920;-63
2022/05/21 09:26:09;;;;;;;;;;;;;;;17.49;46.82;98527.19;5119392;27;20257;-65
2022/05/21 09:28:42;;;;;;;;;;;;;;;17.28;47.98;98522.56;5133582;27;20029;-64
2022/05/21 09:31:10;;;;;;;;;;;;;;;17.25;47.96;98522.44;5137139;27;20244;-63
2022/05/21 09:33:41;;;;;;;;;;;;;;;17.33;47.21;98523.50;5140162;27;19927;-64
2022/05/21 09:36:14;;;;;;;;;;;;;;;17.43;47.69;98528.56;5142459;27;19923;-63
2022/05/21 09:38:49;;;;;;;;;;;;;;;17.33;47.90;98526.25;5139579;27;19961;-64
2022/05/21 09:41:49;;;;;;;;;;;;;;;17.53;47.30;98517.94;5138921;27;19927;-63
2022/05/21 09:47:11;;;;;;;;;;;;;;;17.98;44.75;98516.22;5141943;27;19931;-64
2022/05/21 09:49:39;;;;;;;;;;;;;;;18.16;44.89;98519.50;5143568;27;19976;-63
2022/05/21 09:52:08;;;;;;;;;;;;;;;18.30;45.00;98515.25;5138230;27;19941;-64
2022/05/21 09:54:37;;;;;;;;;;;;;;;18.32;44.56;98523.97;5137890;27;19964;-65
2022/05/21 09:57:06;;;;;;;;;;;;;;;18.10;44.55;98520.91;5117480;27;19919;-64
2022/05/21 09:59:35;;;;;;;;;;;;;;;18.30;44.54;98526.25;5121085;27;19938;-60
2022/05/21 10:02:15;;;;;;;;;;;;;;;18.54;44.29;98519.09;5122482;27;19932;-62
2022/05/21 10:04:44;;;;;;;;;;;;;;;18.63;44.42;98516.97;5119962;27;19924;-63
2022/05/21 10:10:58;;;;;;;;;;;;;;;18.58;44.29;98509.78;5115367;27;20747;-63
2022/05/21 10:12:55;;;;;;;;;;;;;;;18.71;44.59;98512.53;5118794;27;20051;-64
2022/05/21 10:15:25;;;;;;;;;;;;;;;18.56;44.72;98506.59;5117658;27;19950;-59
2022/05/21 10:17:54;;;;;;;;;;;;;;;18.67;45.22;98506.88;5119910;27;19925;-59
2022/05/21 10:20:23;;;;;;;;;;;;;;;18.56;44.77;98503.81;5116643;27;19935;-64
2022/05/21 10:22:51;;;;;;;;;;;;;;;18.66;43.77;98510.78;5121006;27;19943;-61
2022/05/21 10:25:20;;;;;;;;;;;;;;;18.65;43.73;98498.19;5120040;27;19984;-64
2022/05/21 10:28:04;;;;;;;;;;;;;;;18.62;44.55;98498.88;5116631;27;20263;-64
2022/05/21 10:30:36;;;;;;;;;;;;;;;18.59;43.74;98494.88;5115432;27;19932;-63
2022/05/21 10:33:09;;;;;;;;;;;;;;;18.48;44.40;98502.03;5121058;27;19923;-65
2022/05/21 10:35:41;;;;;;;;;;;;;;;18.29;44.41;98497.16;5119324;27;19964;-63
2022/05/21 10:38:41;;;;;;;;;;;;;;;18.41;43.57;98490.00;5118584;27;19927;-63
2022/05/21 10:41:13;;;;;;;;;;;;;;;18.45;43.33;98480.72;5114855;27;20286;-63
2022/05/21 10:43:49;;;;;;;;;;;;;;;18.52;43.46;98491.91;5116745;27;19934;-63
2022/05/21 10:46:22;;;;;;;;;;;;;;;18.43;42.80;98485.78;5111383;27;20098;-64
2022/05/21 10:49:26;;;;;;;;;;;;;;;18.28;42.22;98492.81;5112041;27;19935;-63
2022/05/21 10:51:58;;;;;;;;;;;;;;;18.55;41.56;98482.19;5119416;27;19974;-64
2022/05/21 10:54:36;;;;;;;;;;;;;;;18.73;41.00;98488.19;5112185;27;19954;-64
2022/05/21 10:57:18;;;;;;;;;;;;;;;18.68;41.44;98499.47;5120962;27;19923;-64
2022/05/21 11:00:06;;;;;;;;;;;;;;;18.71;41.41;98493.25;5136101;27;19985;-64
2022/05/21 11:02:55;;;;;;;;;;;;;;;18.91;42.16;98485.94;5124137;27;19931;-62
2022/05/21 11:05:53;;;;;;;;;;;;;;;19.24;42.54;98486.44;5125797;27;19919;-60
2022/05/21 11:08:26;;;;;;;;;;;;;;;19.27;42.21;98480.19;5139705;27;20171;-63
2022/05/21 11:10:56;;;;;;;;;;;;;;;18.82;41.25;98491.59;5134606;27;19958;-65
2022/05/21 11:13:26;;;;;;;;;;;;;;;18.86;41.40;98477.94;5137675;27;19927;-65
2022/05/21 11:16:01;;;;;;;;;;;;;;;18.81;41.85;98477.03;5141383;27;20754;-65
2022/05/21 11:18:32;;;;;;;;;;;;;;;19.07;42.18;98482.06;5136118;27;20375;-63
2022/05/21 11:21:01;;;;;;;;;;;;;;;18.99;42.79;98472.00;5140246;27;19919;-63
2022/05/21 11:23:32;;;;;;;;;;;;;;;19.01;42.36;98482.66;5135871;27;19959;-64
2022/05/21 11:26:02;;;;;;;;;;;;;;;19.06;42.80;98485.94;5138287;27;20362;-64
2022/05/21 11:28:34;;;;;;;;;;;;;;;19.27;42.46;98480.19;5141464;27;19926;-63
2022/05/21 11:31:10;;;;;;;;;;;;;;;19.30;41.66;98486.97;5133312;27;19934;-63
2022/05/21 11:39:35;;;;;;;;;;;;;;;18.73;42.84;98472.47;5139061;27;20424;-64
2022/05/21 11:42:09;;;;;;;;;;;;;;;18.98;43.27;98467.66;5136416;27;19998;-65
2022/05/21 11:47:31;;;;;;;;;;;;;;;19.07;43.81;98470.25;5116888;27;20437;-65
2022/05/21 11:50:06;;;;;;;;;;;;;;;19.11;43.60;98476.63;5131960;27;20627;-62
2022/05/21 11:56:08;;;;;;;;;;;;;;;19.03;43.90;98472.09;5137502;27;19950;-66
2022/05/21 11:59:07;;;;;;;;;;;;;;;19.00;43.42;98476.34;5142137;27;19941;-65
2022/05/21 12:01:53;;;;;;;;;;;;;;;18.66;43.88;98466.75;5139944;27;20021;-65
2022/05/21 12:04:25;;;;;;;;;;;;;;;18.67;43.57;98465.59;5144680;27;19941;-64
2022/05/21 12:07:34;;;;;;;;;;;;;;;18.89;42.76;98466.22;5146181;27;20011;-67
2022/05/21 12:10:03;;;;;;;;;;;;;;;18.94;43.14;98471.47;5129576;27;20026;-64
2022/05/21 12:12:36;;;;;;;;;;;;;;;19.08;41.49;98460.84;5140689;27;20263;-65
2022/05/21 12:15:13;;;;;;;;;;;;;;;18.98;41.12;98462.16;5141641;27;20654;-64
2022/05/21 12:17:43;;;;;;;;;;;;;;;19.20;42.98;98460.75;5146348;27;20300;-66
2022/05/21 12:20:11;;;;;;;;;;;;;;;19.14;42.77;98464.13;5138244;27;19923;-63
2022/05/21 12:22:44;;;;;;;;;;;;;;;19.05;43.65;98473.34;5142931;27;19942;-65
2022/05/21 12:25:33;;;;;;;;;;;;;;;18.84;42.61;98461.75;5141652;27;19919;-65
2022/05/21 12:28:02;;;;;;;;;;;;;;;18.72;42.56;98462.63;5142046;27;19987;-65
2022/05/21 12:30:32;;;;;;;;;;;;;;;18.74;42.73;98467.78;5139177;27;19954;-64
2022/05/21 12:33:00;;;;;;;;;;;;;;;18.89;42.18;98474.47;5138812;27;19934;-66
2022/05/21 12:35:45;;;;;;;;;;;;;;;18.86;42.52;98469.69;5139422;27;19919;-66
2022/05/21 12:38:38;;;;;;;;;;;;;;;18.91;42.96;98472.16;5144025;27;19931;-61
2022/05/21 12:41:12;;;;;;;;;;;;;;;18.85;43.63;98468.88;5145867;27;19931;-65
2022/05/21 12:43:45;;;;;;;;;;;;;;;18.82;41.97;98456.63;5142495;27;19931;-65
2022/05/21 12:46:18;;;;;;;;;;;;;;;18.81;41.92;98455.03;5122177;27;19927;-65
2022/05/21 12:48:46;;;;;;;;;;;;;;;18.98;42.32;98459.41;5121263;27;20280;-65
2022/05/21 12:51:21;;;;;;;;;;;;;;;19.14;41.20;98464.91;5144285;27;20026;-65
2022/05/21 12:54:10;;;;;;;;;;;;;;;19.22;41.29;98452.13;5141519;27;19927;-58
2022/05/21 12:56:40;;;;;;;;;;;;;;;19.20;41.65;98452.47;5142492;27;20361;-66
2022/05/21 12:59:16;;;;;;;;;;;;;;;19.24;41.14;98456.13;5141532;27;19965;-65
2022/05/21 13:01:51;;;;;;;;;;;;;;;19.09;41.01;98456.91;5130981;27;19919;-66
2022/05/21 13:04:23;;;;;;;;;;;;;;;19.41;41.16;98451.41;5145448;27;19931;-64
2022/05/21 13:06:56;;;;;;;;;;;;;;;19.42;41.08;98447.50;5140084;27;20068;-62
2022/05/21 13:09:25;;;;;;;;;;;;;;;19.50;39.82;98449.28;5138807;27;20869;-64
2022/05/21 13:11:55;;;;;;;;;;;;;;;19.60;40.46;98451.50;5141594;27;20000;-65
2022/05/21 13:14:29;;;;;;;;;;;;;;;19.70;39.73;98437.19;5137923;27;19923;-58
2022/05/21 13:16:58;;;;;;;;;;;;;;;19.86;39.68;98442.66;5137886;27;19919;-65
2022/05/21 13:19:56;;;;;;;;;;;;;;;20.01;38.05;98436.31;5139214;27;19919;-63
2022/05/21 13:22:29;;;;;;;;;;;;;;;20.26;38.92;98442.34;5139232;27;20383;-64
2022/05/21 13:24:58;;;;;;;;;;;;;;;20.18;37.56;98435.06;5138508;27;19919;-65
2022/05/21 13:27:26;;;;;;;;;;;;;;;20.26;37.54;98442.34;5139865;27;20021;-63
2022/05/21 13:29:55;;;;;;;;;;;;;;;20.01;37.98;98452.84;5143234;27;20216;-64
2022/05/21 13:32:25;;;;;;;;;;;;;;;19.89;39.46;98442.75;5141540;27;19949;-59
2022/05/21 13:34:55;;;;;;;;;;;;;;;20.03;37.85;98439.50;5126069;27;20396;-63
2022/05/21 13:37:30;;;;;;;;;;;;;;;19.83;39.74;98435.13;5141087;27;19926;-65
2022/05/21 13:40:04;;;;;;;;;;;;;;;19.72;39.93;98440.38;5136879;27;20247;-64
2022/05/21 13:42:32;;;;;;;;;;;;;;;19.83;39.05;98437.88;5146269;27;19919;-65
2022/05/21 13:45:05;;;;;;;;;;;;;;;19.81;39.56;98435.47;5143021;27;20005;-64
2022/05/21 13:47:34;;;;;;;;;;;;;;;19.84;40.04;98436.72;5141322;27;20100;-64
2022/05/21 13:50:03;;;;;;;;;;;;;;;19.65;40.17;98440.22;5138750;27;20247;-63
2022/05/21 13:52:32;;;;;;;;;;;;;;;19.57;40.12;98428.19;5140645;27;19923;-64
2022/05/21 13:55:00;;;;;;;;;;;;;;;19.46;41.00;98442.88;5130359;27;20022;-63
2022/05/21 13:57:35;;;;;;;;;;;;;;;19.29;40.76;98420.06;5119175;27;20038;-61
2022/05/21 14:00:07;;;;;;;;;;;;;;;19.46;40.32;98421.63;5138575;27;19937;-64